Time;durP1;ratioP1;P1;durP2;ratioP2;P2;SDS_P1;SDS_P2;PMS_P1;PMS_P2;Temp;Humidity;BMP_temperature;BMP_pressure;BME280_temperature;BME280_humidity;BME280_pressure;Samples;Min_cycle;Max_cycle;Signal;HPM_P1;HPM_P2
2023/03/21 00:02:10;;;;;;;26.90;24.33;;;;;;;;;;5079253;28;20954;-83
2023/03/21 00:04:37;;;;;;;24.77;23.20;;;;;;;;;;5078993;28;20444;-83
2023/03/21 00:07:05;;;;;;;26.63;24.53;;;;;;;;;;5078480;28;20420;-82
2023/03/21 00:09:32;;;;;;;25.40;23.23;;;;;;;;;;5078236;28;20494;-82
2023/03/21 00:12:00;;;;;;;23.50;21.60;;;;;;;;;;5078797;28;20446;-82
2023/03/21 00:14:29;;;;;;;25.97;23.80;;;;;;;;;;5078698;28;20509;-83
2023/03/21 00:16:56;;;;;;;26.13;23.67;;;;;;;;;;5078360;28;20930;-82
2023/03/21 00:19:25;;;;;;;25.90;23.80;;;;;;;;;;5078481;28;20498;-82
2023/03/21 00:21:54;;;;;;;27.53;24.80;;;;;;;;;;5077865;28;20437;-82
2023/03/21 00:24:22;;;;;;;26.87;24.50;;;;;;;;;;5077054;28;20511;-82
2023/03/21 00:26:50;;;;;;;25.60;23.43;;;;;;;;;;5077636;28;20445;-82
2023/03/21 00:29:17;;;;;;;24.40;22.60;;;;;;;;;;5077031;28;20460;-81
2023/03/21 00:31:44;;;;;;;24.37;22.30;;;;;;;;;;5078277;28;20450;-82
2023/03/21 00:34:11;;;;;;;27.10;24.70;;;;;;;;;;5077843;28;20503;-82
2023/03/21 00:36:39;;;;;;;26.73;24.53;;;;;;;;;;5076793;28;20415;-82
2023/03/21 00:39:06;;;;;;;26.37;23.70;;;;;;;;;;5077212;28;20468;-83
2023/03/21 00:41:34;;;;;;;24.37;22.67;;;;;;;;;;5077590;28;20420;-82
2023/03/21 00:44:02;;;;;;;25.70;23.63;;;;;;;;;;5077270;28;20480;-82
2023/03/21 00:46:29;;;;;;;25.50;23.43;;;;;;;;;;5076654;28;20459;-82
2023/03/21 00:48:56;;;;;;;26.17;23.80;;;;;;;;;;5076723;28;20467;-82
2023/03/21 00:51:25;;;;;;;25.03;23.07;;;;;;;;;;5077794;28;20970;-82
2023/03/21 00:53:53;;;;;;;27.27;24.90;;;;;;;;;;5075776;28;20477;-82
2023/03/21 00:56:20;;;;;;;27.67;25.10;;;;;;;;;;5076054;28;20445;-82
2023/03/21 00:58:49;;;;;;;25.90;24.00;;;;;;;;;;5076102;28;20462;-81
2023/03/21 01:01:17;;;;;;;28.20;25.60;;;;;;;;;;5076837;28;20428;-83
2023/03/21 01:03:46;;;;;;;27.10;24.37;;;;;;;;;;5076571;28;20858;-82
2023/03/21 01:06:18;;;;;;;27.93;25.17;;;;;;;;;;5076318;28;20495;-82
2023/03/21 01:08:45;;;;;;;28.53;25.97;;;;;;;;;;5076603;28;20453;-83
2023/03/21 01:11:14;;;;;;;27.97;25.90;;;;;;;;;;5077093;28;20786;-82
2023/03/21 01:13:41;;;;;;;28.10;25.70;;;;;;;;;;5077117;28;20781;-83
2023/03/21 01:16:10;;;;;;;28.07;25.47;;;;;;;;;;5076357;28;20446;-83
2023/03/21 01:18:39;;;;;;;27.43;25.10;;;;;;;;;;5076624;28;20937;-83
2023/03/21 01:21:07;;;;;;;27.53;25.13;;;;;;;;;;5077329;28;20473;-83
2023/03/21 01:23:34;;;;;;;27.23;24.77;;;;;;;;;;5076610;28;21032;-83
2023/03/21 01:26:01;;;;;;;28.27;26.07;;;;;;;;;;5076484;28;20465;-83
2023/03/21 01:28:29;;;;;;;28.47;26.10;;;;;;;;;;5075980;28;20534;-82
2023/03/21 01:30:56;;;;;;;29.20;26.60;;;;;;;;;;5076243;28;20416;-82
2023/03/21 01:33:25;;;;;;;29.77;27.07;;;;;;;;;;5076789;28;20446;-82
2023/03/21 01:35:52;;;;;;;30.77;27.57;;;;;;;;;;5074651;28;20439;-82
2023/03/21 01:38:19;;;;;;;29.27;26.63;;;;;;;;;;5076551;28;20497;-83
2023/03/21 01:40:47;;;;;;;28.67;25.90;;;;;;;;;;5076807;28;20476;-82
2023/03/21 01:43:21;;;;;;;29.93;27.30;;;;;;;;;;5075893;28;20485;-82
2023/03/21 01:46:12;;;;;;;29.73;27.17;;;;;;;;;;5075546;28;20991;-82
2023/03/21 01:48:42;;;;;;;27.80;25.50;;;;;;;;;;5064938;28;20459;-82
2023/03/21 01:51:11;;;;;;;28.67;26.47;;;;;;;;;;5076423;28;20874;-82
2023/03/21 01:53:40;;;;;;;32.20;28.93;;;;;;;;;;5075987;28;20444;-82
2023/03/21 01:56:10;;;;;;;33.17;29.93;;;;;;;;;;5075446;28;20424;-82
2023/03/21 01:58:38;;;;;;;28.47;26.10;;;;;;;;;;5076024;28;20520;-83
2023/03/21 02:01:06;;;;;;;29.87;27.43;;;;;;;;;;5076137;28;20537;-83
2023/03/21 02:03:36;;;;;;;28.93;26.60;;;;;;;;;;5075547;28;21023;-82
2023/03/21 02:06:10;;;;;;;29.00;26.57;;;;;;;;;;5075480;28;20464;-83
2023/03/21 02:08:37;;;;;;;29.10;26.57;;;;;;;;;;5076347;28;20483;-83
2023/03/21 02:11:04;;;;;;;29.07;26.70;;;;;;;;;;5075625;28;20538;-83
2023/03/21 02:13:31;;;;;;;32.17;28.67;;;;;;;;;;5076055;28;20453;-82
2023/03/21 02:16:00;;;;;;;30.97;27.73;;;;;;;;;;5075039;28;20429;-83
2023/03/21 02:18:32;;;;;;;30.23;27.63;;;;;;;;;;5075876;28;20473;-83
2023/03/21 02:21:10;;;;;;;28.63;26.20;;;;;;;;;;5075553;28;20445;-83
2023/03/21 02:23:46;;;;;;;29.83;27.43;;;;;;;;;;5075239;28;20471;-83
2023/03/21 02:26:32;;;;;;;29.70;27.33;;;;;;;;;;5075092;28;20437;-82
2023/03/21 02:29:02;;;;;;;31.40;28.30;;;;;;;;;;5074887;28;20489;-82
2023/03/21 02:31:36;;;;;;;29.37;26.93;;;;;;;;;;5075519;28;20800;-83
2023/03/21 02:34:14;;;;;;;32.97;29.87;;;;;;;;;;5075494;28;20426;-82
2023/03/21 02:36:49;;;;;;;33.20;29.73;;;;;;;;;;5075263;28;20500;-83
2023/03/21 02:39:22;;;;;;;31.60;28.63;;;;;;;;;;5075298;28;20447;-83
2023/03/21 02:41:51;;;;;;;32.80;30.00;;;;;;;;;;5074933;28;20407;-83
2023/03/21 02:44:21;;;;;;;30.17;27.37;;;;;;;;;;5075340;28;20437;-83
2023/03/21 02:46:51;;;;;;;31.07;28.37;;;;;;;;;;5074531;28;20499;-82
2023/03/21 02:49:21;;;;;;;31.93;29.00;;;;;;;;;;5074687;28;20464;-82
2023/03/21 02:51:51;;;;;;;30.43;27.83;;;;;;;;;;5075162;28;20511;-83
2023/03/21 02:54:20;;;;;;;32.20;29.33;;;;;;;;;;5075217;28;20441;-82
2023/03/21 02:56:47;;;;;;;34.93;31.30;;;;;;;;;;5074420;28;20467;-82
2023/03/21 02:59:15;;;;;;;32.90;30.13;;;;;;;;;;5074253;28;20984;-82
2023/03/21 03:01:42;;;;;;;30.03;27.23;;;;;;;;;;5074867;28;20457;-82
2023/03/21 03:04:18;;;;;;;32.10;29.17;;;;;;;;;;5074534;28;20477;-82
2023/03/21 03:06:49;;;;;;;27.30;25.10;;;;;;;;;;5073666;28;20449;-83
2023/03/21 03:09:26;;;;;;;38.70;30.23;;;;;;;;;;5073712;28;20952;-82
2023/03/21 03:11:55;;;;;;;31.90;28.63;;;;;;;;;;5073663;28;20474;-82
2023/03/21 03:14:29;;;;;;;32.30;28.93;;;;;;;;;;5074266;28;20534;-82
2023/03/21 03:17:03;;;;;;;29.23;26.67;;;;;;;;;;5073968;28;20450;-82
2023/03/21 03:19:32;;;;;;;29.67;27.00;;;;;;;;;;5074277;28;20446;-83
2023/03/21 03:22:01;;;;;;;31.57;28.93;;;;;;;;;;5079770;28;20437;-82
2023/03/21 03:24:32;;;;;;;31.10;27.93;;;;;;;;;;5082594;28;20467;-83
2023/03/21 03:27:00;;;;;;;32.37;29.27;;;;;;;;;;5076082;28;20772;-82
2023/03/21 03:29:29;;;;;;;29.87;26.97;;;;;;;;;;5076164;28;20451;-83
2023/03/21 03:31:59;;;;;;;30.03;27.50;;;;;;;;;;5076135;28;20831;-83
2023/03/21 03:34:28;;;;;;;28.53;25.70;;;;;;;;;;5076418;28;20493;-83
2023/03/21 03:36:58;;;;;;;29.50;26.50;;;;;;;;;;5076354;28;20431;-83
2023/03/21 03:39:27;;;;;;;30.20;27.40;;;;;;;;;;5080910;28;20490;-83
2023/03/21 03:41:58;;;;;;;30.97;28.23;;;;;;;;;;5075576;28;20465;-83
2023/03/21 03:44:27;;;;;;;31.93;28.73;;;;;;;;;;5075982;28;20577;-83
2023/03/21 03:46:56;;;;;;;31.20;28.10;;;;;;;;;;5075159;28;20454;-83
2023/03/21 03:49:26;;;;;;;28.00;25.37;;;;;;;;;;5075994;28;20447;-83
2023/03/21 03:51:55;;;;;;;28.43;25.80;;;;;;;;;;5075682;28;20435;-83
2023/03/21 03:54:23;;;;;;;29.33;26.63;;;;;;;;;;5075657;28;20786;-83
2023/03/21 03:56:50;;;;;;;30.03;27.40;;;;;;;;;;5075131;28;20434;-83
2023/03/21 03:59:22;;;;;;;30.63;27.73;;;;;;;;;;5076618;28;20504;-83
2023/03/21 04:01:49;;;;;;;30.00;26.80;;;;;;;;;;5079329;28;20416;-83
2023/03/21 04:04:16;;;;;;;29.93;26.97;;;;;;;;;;5079842;28;20817;-83
2023/03/21 04:06:44;;;;;;;29.70;27.13;;;;;;;;;;5085426;28;20404;-83
2023/03/21 04:09:12;;;;;;;30.03;27.07;;;;;;;;;;5093939;28;20507;-82
2023/03/21 04:11:39;;;;;;;28.97;26.67;;;;;;;;;;5094390;28;20486;-83
2023/03/21 04:14:06;;;;;;;29.80;27.10;;;;;;;;;;5087804;28;20534;-83
2023/03/21 04:16:34;;;;;;;28.70;26.50;;;;;;;;;;5079184;28;20493;-83
2023/03/21 04:19:02;;;;;;;29.70;26.80;;;;;;;;;;5080106;28;20444;-83
2023/03/21 04:21:30;;;;;;;29.20;26.50;;;;;;;;;;5080998;28;20442;-83
2023/03/21 04:23:58;;;;;;;30.37;27.43;;;;;;;;;;5079443;28;20489;-83
2023/03/21 04:26:30;;;;;;;44.43;28.27;;;;;;;;;;5078462;28;20488;-83
2023/03/21 04:28:59;;;;;;;30.83;27.50;;;;;;;;;;5080767;28;21066;-83
2023/03/21 04:31:29;;;;;;;28.73;25.97;;;;;;;;;;5078722;28;20507;-83
2023/03/21 04:33:58;;;;;;;29.30;26.47;;;;;;;;;;5078470;28;20444;-83
2023/03/21 04:36:27;;;;;;;29.07;26.47;;;;;;;;;;5077929;28;20428;-83
2023/03/21 04:38:56;;;;;;;27.13;24.63;;;;;;;;;;5078542;28;20470;-83
2023/03/21 04:41:22;;;;;;;29.07;26.23;;;;;;;;;;5078474;28;20916;-83
2023/03/21 04:43:51;;;;;;;30.00;26.10;;;;;;;;;;5077664;28;20873;-83
2023/03/21 04:46:18;;;;;;;27.97;25.00;;;;;;;;;;5077910;28;20427;-83
2023/03/21 04:48:46;;;;;;;31.07;28.37;;;;;;;;;;5079086;28;20550;-83
2023/03/21 04:51:14;;;;;;;35.13;31.63;;;;;;;;;;5078404;28;20468;-83
2023/03/21 04:53:43;;;;;;;30.93;27.73;;;;;;;;;;5078077;28;20442;-83
2023/03/21 04:56:10;;;;;;;35.47;32.17;;;;;;;;;;5077600;28;20417;-83
2023/03/21 04:58:39;;;;;;;27.70;25.17;;;;;;;;;;5078452;28;20510;-82
2023/03/21 05:01:06;;;;;;;27.67;25.13;;;;;;;;;;5076270;28;20518;-82
2023/03/21 05:03:38;;;;;;;28.23;25.80;;;;;;;;;;5076277;28;20446;-82
2023/03/21 05:06:06;;;;;;;29.87;27.00;;;;;;;;;;5076242;28;20409;-82
2023/03/21 05:08:34;;;;;;;27.30;25.03;;;;;;;;;;5076552;28;20452;-82
2023/03/21 05:11:01;;;;;;;30.23;26.07;;;;;;;;;;5076692;28;20821;-83
2023/03/21 05:13:28;;;;;;;27.97;25.60;;;;;;;;;;5076756;28;20993;-83
2023/03/21 05:15:55;;;;;;;28.83;25.90;;;;;;;;;;5077203;28;20408;-83
2023/03/21 05:18:23;;;;;;;28.50;25.70;;;;;;;;;;5076475;28;20463;-83
2023/03/21 05:20:53;;;;;;;27.17;24.50;;;;;;;;;;5077955;28;20937;-83
2023/03/21 05:23:20;;;;;;;28.33;26.03;;;;;;;;;;5078945;28;20457;-83
2023/03/21 05:25:49;;;;;;;29.47;26.67;;;;;;;;;;5076882;28;20462;-83
2023/03/21 05:28:17;;;;;;;27.53;25.30;;;;;;;;;;5077596;28;20497;-81
2023/03/21 05:30:45;;;;;;;28.60;25.70;;;;;;;;;;5077413;28;20407;-83
2023/03/21 05:33:12;;;;;;;27.57;25.27;;;;;;;;;;5079345;28;20875;-82
2023/03/21 05:35:39;;;;;;;28.57;26.17;;;;;;;;;;5076055;28;20959;-79
2023/03/21 05:38:06;;;;;;;28.20;25.67;;;;;;;;;;5078204;28;20781;-80
2023/03/21 05:40:33;;;;;;;29.30;26.30;;;;;;;;;;5085410;28;20524;-80
2023/03/21 05:43:02;;;;;;;28.90;26.30;;;;;;;;;;5084222;28;20446;-80
2023/03/21 05:45:29;;;;;;;29.50;26.43;;;;;;;;;;5084156;28;20474;-80
2023/03/21 05:47:56;;;;;;;28.37;25.67;;;;;;;;;;5078310;28;20512;-80
2023/03/21 05:50:23;;;;;;;29.00;26.40;;;;;;;;;;5078330;28;20432;-80
2023/03/21 05:52:50;;;;;;;28.37;25.63;;;;;;;;;;5077802;28;20435;-80
2023/03/21 05:55:17;;;;;;;28.37;25.47;;;;;;;;;;5077361;28;20420;-80
2023/03/21 05:57:44;;;;;;;29.03;26.23;;;;;;;;;;5076012;28;20467;-80
2023/03/21 06:00:13;;;;;;;28.17;25.73;;;;;;;;;;5077772;28;20425;-80
2023/03/21 06:02:40;;;;;;;29.10;26.20;;;;;;;;;;5077708;28;20503;-80
2023/03/21 06:05:08;;;;;;;29.60;26.60;;;;;;;;;;5077462;28;20451;-80
2023/03/21 06:07:35;;;;;;;28.20;25.40;;;;;;;;;;5076386;28;20438;-79
2023/03/21 06:10:03;;;;;;;27.07;24.50;;;;;;;;;;5076854;28;20443;-79
2023/03/21 06:12:30;;;;;;;28.40;26.07;;;;;;;;;;5076977;28;20847;-79
2023/03/21 06:14:57;;;;;;;27.00;24.87;;;;;;;;;;5078042;28;20446;-79
2023/03/21 06:17:25;;;;;;;28.03;25.50;;;;;;;;;;5076981;28;20462;-79
2023/03/21 06:19:52;;;;;;;27.63;25.33;;;;;;;;;;5077839;28;20428;-79
2023/03/21 06:22:19;;;;;;;27.57;24.97;;;;;;;;;;5076526;28;20493;-79
2023/03/21 06:24:47;;;;;;;28.90;26.13;;;;;;;;;;5076514;28;20896;-79
2023/03/21 06:27:14;;;;;;;27.57;25.03;;;;;;;;;;5076061;28;20507;-79
2023/03/21 06:29:41;;;;;;;28.40;25.40;;;;;;;;;;5075522;28;20485;-79
2023/03/21 06:32:08;;;;;;;28.37;25.50;;;;;;;;;;5076115;28;20477;-80
2023/03/21 06:34:36;;;;;;;29.77;26.80;;;;;;;;;;5075893;28;20490;-79
2023/03/21 06:37:04;;;;;;;28.93;25.70;;;;;;;;;;5075632;28;20531;-79
2023/03/21 06:39:31;;;;;;;30.73;27.93;;;;;;;;;;5075603;28;20480;-79
2023/03/21 06:41:59;;;;;;;28.00;25.30;;;;;;;;;;5076230;28;20444;-79
2023/03/21 06:44:26;;;;;;;30.10;27.20;;;;;;;;;;5075336;28;20452;-79
2023/03/21 06:46:53;;;;;;;29.93;27.23;;;;;;;;;;5074846;28;20859;-79
2023/03/21 06:49:20;;;;;;;29.90;25.87;;;;;;;;;;5076494;28;20474;-79
2023/03/21 06:51:49;;;;;;;29.43;26.93;;;;;;;;;;5075856;28;20860;-79
2023/03/21 06:54:17;;;;;;;29.00;26.47;;;;;;;;;;5077997;28;20428;-79
2023/03/21 06:56:44;;;;;;;29.90;27.10;;;;;;;;;;5076587;28;20428;-79
2023/03/21 06:59:11;;;;;;;30.93;27.80;;;;;;;;;;5075937;28;20469;-79
2023/03/21 07:01:38;;;;;;;27.70;25.50;;;;;;;;;;5076114;28;20446;-79
2023/03/21 07:04:06;;;;;;;28.87;26.53;;;;;;;;;;5075195;28;20496;-80
2023/03/21 07:06:33;;;;;;;29.47;26.77;;;;;;;;;;5075213;28;20420;-80
2023/03/21 07:09:03;;;;;;;30.20;27.13;;;;;;;;;;5077023;28;20513;-80
2023/03/21 07:11:30;;;;;;;28.93;26.40;;;;;;;;;;5077483;28;20821;-79
2023/03/21 07:13:58;;;;;;;31.83;28.70;;;;;;;;;;5075596;28;20481;-79
2023/03/21 07:16:25;;;;;;;31.07;27.13;;;;;;;;;;5075118;28;20442;-79
2023/03/21 07:18:52;;;;;;;30.50;27.80;;;;;;;;;;5075907;28;20814;-79
2023/03/21 07:21:19;;;;;;;28.23;25.90;;;;;;;;;;5076037;28;20420;-79
2023/03/21 07:23:46;;;;;;;31.03;28.13;;;;;;;;;;5075952;28;20445;-80
2023/03/21 07:26:14;;;;;;;31.40;28.50;;;;;;;;;;5075342;28;20455;-80
2023/03/21 07:28:42;;;;;;;29.50;26.60;;;;;;;;;;5075418;28;20482;-80
2023/03/21 07:31:08;;;;;;;29.37;26.50;;;;;;;;;;5076260;28;20475;-80
2023/03/21 07:33:35;;;;;;;31.60;26.73;;;;;;;;;;5077242;28;20936;-79
2023/03/21 07:36:03;;;;;;;30.47;27.80;;;;;;;;;;5079223;28;20445;-81
2023/03/21 07:38:30;;;;;;;28.33;25.60;;;;;;;;;;5078361;28;20469;-79
2023/03/21 07:41:00;;;;;;;29.83;27.17;;;;;;;;;;5077643;28;20497;-78
2023/03/21 07:43:28;;;;;;;30.53;27.73;;;;;;;;;;5079121;28;20463;-78
2023/03/21 07:45:57;;;;;;;28.70;26.30;;;;;;;;;;5077451;28;20971;-78
2023/03/21 07:48:24;;;;;;;27.47;24.97;;;;;;;;;;5077949;28;20447;-78
2023/03/21 07:50:51;;;;;;;29.43;26.67;;;;;;;;;;5077789;28;20943;-78
2023/03/21 07:53:18;;;;;;;28.00;25.63;;;;;;;;;;5077632;28;20424;-78
2023/03/21 07:55:45;;;;;;;29.13;26.50;;;;;;;;;;5076763;28;20845;-78
2023/03/21 07:58:12;;;;;;;25.93;23.70;;;;;;;;;;5077751;28;20469;-78
2023/03/21 08:00:41;;;;;;;29.47;26.70;;;;;;;;;;5077575;28;20925;-78
2023/03/21 08:03:08;;;;;;;28.87;25.87;;;;;;;;;;5077795;28;20439;-78
2023/03/21 08:05:37;;;;;;;24.97;21.83;;;;;;;;;;5076927;28;20460;-77
2023/03/21 08:08:04;;;;;;;26.67;24.30;;;;;;;;;;5078863;28;20523;-79
2023/03/21 08:10:31;;;;;;;27.30;24.60;;;;;;;;;;5078320;28;20424;-78
2023/03/21 08:12:58;;;;;;;27.40;24.90;;;;;;;;;;5077994;28;20442;-79
2023/03/21 08:15:25;;;;;;;25.50;23.03;;;;;;;;;;5077736;28;20469;-78
2023/03/21 08:17:53;;;;;;;27.07;24.60;;;;;;;;;;5077489;28;20440;-79
2023/03/21 08:20:22;;;;;;;28.57;25.90;;;;;;;;;;5078103;28;20438;-79
2023/03/21 08:22:49;;;;;;;29.13;26.20;;;;;;;;;;5077811;28;20432;-79
2023/03/21 08:25:17;;;;;;;26.77;24.53;;;;;;;;;;5078302;28;20577;-79
2023/03/21 08:27:45;;;;;;;28.17;25.57;;;;;;;;;;5087272;28;22239;-79
2023/03/21 08:30:13;;;;;;;28.03;25.60;;;;;;;;;;5098226;28;20412;-79
2023/03/21 08:32:41;;;;;;;29.33;26.73;;;;;;;;;;5097010;28;20507;-80
2023/03/21 08:35:11;;;;;;;31.43;28.40;;;;;;;;;;5079489;28;20463;-80
2023/03/21 08:37:38;;;;;;;28.17;25.97;;;;;;;;;;5078405;28;20446;-80
2023/03/21 08:40:08;;;;;;;30.43;27.70;;;;;;;;;;5078749;28;20499;-80
2023/03/21 08:42:35;;;;;;;30.53;27.93;;;;;;;;;;5078844;28;20457;-80
2023/03/21 08:45:03;;;;;;;30.10;27.50;;;;;;;;;;5077847;28;20514;-80
2023/03/21 08:47:31;;;;;;;31.03;28.10;;;;;;;;;;5078178;28;20536;-80
2023/03/21 08:49:58;;;;;;;31.43;28.57;;;;;;;;;;5078072;28;20961;-79
2023/03/21 08:52:27;;;;;;;32.43;29.60;;;;;;;;;;5078277;28;20434;-80
2023/03/21 08:54:54;;;;;;;32.37;28.90;;;;;;;;;;5078056;28;20424;-80
2023/03/21 08:57:22;;;;;;;30.97;28.10;;;;;;;;;;5077824;28;20452;-79
2023/03/21 08:59:49;;;;;;;37.77;32.20;;;;;;;;;;5078808;28;20500;-79
2023/03/21 09:02:16;;;;;;;32.90;29.07;;;;;;;;;;5078310;28;20452;-78
2023/03/21 09:04:43;;;;;;;30.43;28.20;;;;;;;;;;5078670;28;20470;-78
2023/03/21 09:07:11;;;;;;;32.87;30.17;;;;;;;;;;5080531;28;20486;-78
2023/03/21 09:09:40;;;;;;;32.90;30.00;;;;;;;;;;5080469;28;20834;-79
2023/03/21 09:12:07;;;;;;;36.07;32.30;;;;;;;;;;5080779;28;20454;-79
2023/03/21 09:14:34;;;;;;;35.33;32.27;;;;;;;;;;5080266;28;20841;-79
2023/03/21 09:17:01;;;;;;;34.53;31.73;;;;;;;;;;5079347;28;20523;-79
2023/03/21 09:19:28;;;;;;;35.83;32.53;;;;;;;;;;5079722;28;20514;-79
2023/03/21 09:21:56;;;;;;;37.63;34.17;;;;;;;;;;5081875;28;20767;-82
2023/03/21 09:24:25;;;;;;;34.37;31.17;;;;;;;;;;5080855;28;20464;-83
2023/03/21 09:26:53;;;;;;;37.93;34.23;;;;;;;;;;5082562;28;20810;-79
2023/03/21 09:29:22;;;;;;;37.57;34.30;;;;;;;;;;5081999;28;21006;-79
2023/03/21 09:31:49;;;;;;;38.73;35.40;;;;;;;;;;5080312;28;20923;-79
2023/03/21 09:34:16;;;;;;;36.73;33.53;;;;;;;;;;5079541;28;20462;-79
2023/03/21 09:36:47;;;;;;;36.93;33.70;;;;;;;;;;5078278;28;20431;-79
2023/03/21 09:39:16;;;;;;;37.80;34.63;;;;;;;;;;5079372;28;20478;-79
2023/03/21 09:42:02;;;;;;;36.83;33.47;;;;;;;;;;5079191;28;20491;-79
2023/03/21 09:44:36;;;;;;;30.70;28.83;;;;;;;;;;5078136;28;20445;-79
2023/03/21 09:47:05;;;;;;;33.90;31.27;;;;;;;;;;5078449;28;20456;-79
2023/03/21 09:49:34;;;;;;;42.03;38.10;;;;;;;;;;5078440;28;20436;-79
2023/03/21 09:52:04;;;;;;;42.53;38.43;;;;;;;;;;5078893;28;20508;-79
2023/03/21 09:54:33;;;;;;;37.90;34.83;;;;;;;;;;5078486;28;20431;-79
2023/03/21 09:57:05;;;;;;;37.10;33.30;;;;;;;;;;5076510;28;20426;-79
2023/03/21 09:59:38;;;;;;;37.90;34.93;;;;;;;;;;5076613;28;20480;-79
2023/03/21 10:02:20;;;;;;;39.03;36.07;;;;;;;;;;5077753;28;20529;-80
2023/03/21 10:04:48;;;;;;;40.30;37.07;;;;;;;;;;5080423;28;20476;-79
2023/03/21 10:07:17;;;;;;;37.13;34.23;;;;;;;;;;5077561;28;20543;-79
2023/03/21 10:09:45;;;;;;;39.23;35.53;;;;;;;;;;5077200;28;20482;-79
2023/03/21 10:12:17;;;;;;;38.93;35.53;;;;;;;;;;5077932;28;20494;-79
2023/03/21 10:14:46;;;;;;;40.80;37.37;;;;;;;;;;5077370;28;20516;-79
2023/03/21 10:17:20;;;;;;;42.43;39.33;;;;;;;;;;5076484;28;20419;-79
2023/03/21 10:19:47;;;;;;;42.90;39.20;;;;;;;;;;5076895;28;20497;-79
2023/03/21 10:22:14;;;;;;;41.87;38.07;;;;;;;;;;5076699;28;20446;-79
2023/03/21 10:24:41;;;;;;;41.57;38.20;;;;;;;;;;5077786;28;20446;-79
2023/03/21 10:27:12;;;;;;;41.00;37.50;;;;;;;;;;5077298;28;20510;-79
2023/03/21 10:29:42;;;;;;;41.90;38.43;;;;;;;;;;5077307;28;20452;-79
2023/03/21 10:32:10;;;;;;;39.70;36.57;;;;;;;;;;5078783;28;20768;-79
2023/03/21 10:34:38;;;;;;;37.87;34.60;;;;;;;;;;5079340;28;20981;-79
2023/03/21 10:37:06;;;;;;;40.83;37.53;;;;;;;;;;5078661;28;20431;-79
2023/03/21 10:39:34;;;;;;;42.03;38.97;;;;;;;;;;5077223;28;20480;-79
2023/03/21 10:42:02;;;;;;;35.23;32.50;;;;;;;;;;5076229;28;20466;-79
2023/03/21 10:44:30;;;;;;;32.43;30.37;;;;;;;;;;5077554;28;20852;-79
2023/03/21 10:46:59;;;;;;;38.43;35.43;;;;;;;;;;5082134;28;21031;-79
2023/03/21 10:49:26;;;;;;;40.97;37.23;;;;;;;;;;5078876;28;20444;-79
2023/03/21 10:51:55;;;;;;;36.73;34.20;;;;;;;;;;5080083;28;20420;-79
2023/03/21 10:54:23;;;;;;;38.80;35.40;;;;;;;;;;5077169;28;20428;-79
2023/03/21 10:56:55;;;;;;;39.37;36.00;;;;;;;;;;5076119;28;20764;-79
2023/03/21 10:59:23;;;;;;;38.40;35.37;;;;;;;;;;5078043;28;20496;-79
2023/03/21 11:01:51;;;;;;;32.57;30.07;;;;;;;;;;5076963;28;20471;-79
2023/03/21 11:04:21;;;;;;;39.87;36.57;;;;;;;;;;5076794;28;20432;-79
2023/03/21 11:06:51;;;;;;;38.53;35.33;;;;;;;;;;5076404;28;20436;-79
2023/03/21 11:09:20;;;;;;;36.60;33.33;;;;;;;;;;5076515;28;20828;-79
2023/03/21 11:11:51;;;;;;;40.40;36.63;;;;;;;;;;5060769;28;20781;-79
2023/03/21 11:14:33;;;;;;;34.17;32.00;;;;;;;;;;5060478;28;20442;-79
2023/03/21 11:17:00;;;;;;;36.13;33.83;;;;;;;;;;5059783;28;20526;-79
2023/03/21 11:19:31;;;;;;;38.90;36.30;;;;;;;;;;5060492;28;20445;-79
2023/03/21 11:21:58;;;;;;;39.67;36.47;;;;;;;;;;5060477;28;20413;-79
2023/03/21 11:24:29;;;;;;;41.07;38.10;;;;;;;;;;5060685;28;20447;-79
2023/03/21 11:26:56;;;;;;;34.80;32.80;;;;;;;;;;5061325;28;20466;-81
2023/03/21 11:29:27;;;;;;;38.43;35.40;;;;;;;;;;5061024;28;20479;-79
2023/03/21 11:31:58;;;;;;;38.63;35.60;;;;;;;;;;5059033;28;20438;-79
2023/03/21 11:34:27;;;;;;;36.27;33.70;;;;;;;;;;5057791;28;20431;-79
2023/03/21 11:37:00;;;;;;;38.67;35.57;;;;;;;;;;5057108;28;20447;-79
2023/03/21 11:39:39;;;;;;;38.57;35.67;;;;;;;;;;5058238;28;20498;-79
2023/03/21 11:42:06;;;;;;;41.37;38.20;;;;;;;;;;5058405;28;20429;-79
2023/03/21 11:44:34;;;;;;;38.33;35.40;;;;;;;;;;5057751;28;20434;-79
2023/03/21 11:47:02;;;;;;;38.47;35.43;;;;;;;;;;5056923;28;20486;-79
2023/03/21 11:49:29;;;;;;;36.90;34.23;;;;;;;;;;5057470;28;20441;-79
2023/03/21 11:52:13;;;;;;;37.90;35.10;;;;;;;;;;5057630;28;20433;-79
2023/03/21 11:54:49;;;;;;;39.60;36.40;;;;;;;;;;5057452;28;20405;-79
2023/03/21 11:57:23;;;;;;;37.70;35.00;;;;;;;;;;5056561;28;20760;-79
2023/03/21 11:59:54;;;;;;;40.53;37.40;;;;;;;;;;5057541;28;20838;-79
2023/03/21 12:02:42;;;;;;;36.57;34.07;;;;;;;;;;5057499;28;20838;-79
2023/03/21 12:05:16;;;;;;;44.40;41.70;;;;;;;;;;5032059;28;20446;-79
2023/03/21 12:07:52;;;;;;;42.80;40.10;;;;;;;;;;5056489;28;20437;-79
2023/03/21 12:10:28;;;;;;;44.97;41.47;;;;;;;;;;5057535;28;20401;-79
2023/03/21 12:12:56;;;;;;;43.63;40.20;;;;;;;;;;5056588;28;20480;-79
2023/03/21 12:15:26;;;;;;;46.30;43.10;;;;;;;;;;5057371;28;20784;-79
2023/03/21 12:17:57;;;;;;;42.30;39.50;;;;;;;;;;5056998;28;20844;-79
2023/03/21 12:20:29;;;;;;;38.00;35.50;;;;;;;;;;5056245;28;20479;-79
2023/03/21 12:23:11;;;;;;;41.40;38.10;;;;;;;;;;5060089;28;20436;-79
2023/03/21 12:25:40;;;;;;;38.10;35.70;;;;;;;;;;5064993;28;20433;-80
2023/03/21 12:28:13;;;;;;;44.47;41.30;;;;;;;;;;5061178;28;20468;-80
2023/03/21 12:30:45;;;;;;;42.73;39.50;;;;;;;;;;5063776;28;20478;-80
2023/03/21 12:33:24;;;;;;;35.87;33.17;;;;;;;;;;5067067;28;20426;-80
2023/03/21 12:36:17;;;;;;;39.70;37.00;;;;;;;;;;5071295;28;20511;-85
2023/03/21 12:38:53;;;;;;;37.50;34.17;;;;;;;;;;5064047;28;20471;-84
2023/03/21 12:41:26;;;;;;;37.67;34.63;;;;;;;;;;5063563;28;20405;-85
2023/03/21 12:43:56;;;;;;;37.77;35.13;;;;;;;;;;5060625;28;20421;-85
2023/03/21 12:46:27;;;;;;;37.50;34.90;;;;;;;;;;5058710;28;20470;-84
2023/03/21 12:48:57;;;;;;;36.50;34.07;;;;;;;;;;5059462;28;20846;-84
2023/03/21 12:51:28;;;;;;;37.60;34.70;;;;;;;;;;5057913;28;20432;-84
2023/03/21 12:54:01;;;;;;;37.10;34.40;;;;;;;;;;5059318;28;20438;-87
2023/03/21 12:56:29;;;;;;;39.47;36.97;;;;;;;;;;5058421;28;20533;-80
2023/03/21 12:58:58;;;;;;;38.13;35.90;;;;;;;;;;5061863;28;20441;-80
2023/03/21 13:01:26;;;;;;;39.53;36.77;;;;;;;;;;5059299;28;20922;-82
2023/03/21 13:03:58;;;;;;;39.20;36.27;;;;;;;;;;5058926;28;20452;-82
2023/03/21 13:06:27;;;;;;;36.43;34.13;;;;;;;;;;5057618;28;20466;-82
2023/03/21 13:08:57;;;;;;;36.43;34.13;;;;;;;;;;5059749;28;20449;-86
2023/03/21 13:11:27;;;;;;;35.30;32.63;;;;;;;;;;5076989;28;20452;-87
2023/03/21 13:13:58;;;;;;;37.60;34.73;;;;;;;;;;5067040;28;20440;-81
2023/03/21 13:16:27;;;;;;;37.33;34.93;;;;;;;;;;5064123;28;20499;-84
2023/03/21 13:19:00;;;;;;;36.30;33.50;;;;;;;;;;5067831;28;20540;-85
2023/03/21 13:21:43;;;;;;;36.00;33.63;;;;;;;;;;5067595;28;20431;-86
2023/03/21 13:24:28;;;;;;;33.60;31.10;;;;;;;;;;5061017;28;20497;-85
2023/03/21 13:27:03;;;;;;;35.90;33.10;;;;;;;;;;5059562;28;20445;-86
2023/03/21 13:29:31;;;;;;;38.30;35.70;;;;;;;;;;5059983;28;20446;-84
2023/03/21 13:32:08;;;;;;;33.73;31.43;;;;;;;;;;5060183;28;20458;-84
2023/03/21 13:34:35;;;;;;;34.67;32.50;;;;;;;;;;5060542;28;21010;-84
2023/03/21 13:37:03;;;;;;;32.27;29.47;;;;;;;;;;5060258;28;20450;-84
2023/03/21 13:39:32;;;;;;;33.17;30.90;;;;;;;;;;5061443;28;20441;-83
2023/03/21 13:42:04;;;;;;;31.93;29.37;;;;;;;;;;5060243;28;20443;-84
2023/03/21 13:44:40;;;;;;;29.43;27.63;;;;;;;;;;5056767;28;20463;-84
2023/03/21 13:47:23;;;;;;;29.50;27.60;;;;;;;;;;5056324;28;20509;-85
2023/03/21 13:50:05;;;;;;;32.90;30.53;;;;;;;;;;5057280;28;20417;-85
2023/03/21 13:52:32;;;;;;;33.23;31.13;;;;;;;;;;5057976;28;20443;-84
2023/03/21 13:55:03;;;;;;;31.97;29.67;;;;;;;;;;5057090;28;20429;-84
2023/03/21 13:57:45;;;;;;;32.13;30.20;;;;;;;;;;5055384;28;20401;-84
2023/03/21 14:00:19;;;;;;;31.60;29.50;;;;;;;;;;5057475;28;20429;-84
2023/03/21 14:03:02;;;;;;;27.77;25.70;;;;;;;;;;5057537;28;20768;-84
2023/03/21 14:05:29;;;;;;;29.97;28.07;;;;;;;;;;5056927;28;20504;-83
2023/03/21 14:07:58;;;;;;;29.27;27.17;;;;;;;;;;5056756;28;20456;-84
2023/03/21 14:10:28;;;;;;;29.60;27.10;;;;;;;;;;5056106;28;20447;-84
2023/03/21 14:12:55;;;;;;;30.10;28.00;;;;;;;;;;5057033;28;20409;-84
2023/03/21 14:15:26;;;;;;;30.43;28.43;;;;;;;;;;5061218;28;20425;-84
2023/03/21 14:17:54;;;;;;;30.70;28.53;;;;;;;;;;5058064;28;20481;-84
2023/03/21 14:20:22;;;;;;;29.37;27.60;;;;;;;;;;5056242;28;20446;-84
2023/03/21 14:22:50;;;;;;;29.53;27.87;;;;;;;;;;5056739;28;20504;-84
2023/03/21 14:25:18;;;;;;;29.33;27.60;;;;;;;;;;5056241;28;20443;-84
2023/03/21 14:27:46;;;;;;;29.10;27.37;;;;;;;;;;5054866;28;20453;-84
2023/03/21 14:30:20;;;;;;;30.50;28.80;;;;;;;;;;5057391;28;20413;-84